Time;durP1;ratioP1;P1;durP2;ratioP2;P2;SDS_P1;SDS_P2;PMS_P1;PMS_P2;Temp;Humidity;BMP_temperature;BMP_pressure;BME280_temperature;BME280_humidity;BME280_pressure;Samples;Min_cycle;Max_cycle;Signal;HPM_P1;HPM_P2
2022/07/10 00:02:11;;;;;;;16.23;11.67;;;18.20;99.90;;;18.55;69.59;94862.53;5052184;28;20475;-60
2022/07/10 00:04:38;;;;;;;12.77;11.47;;;18.20;99.90;;;18.54;69.71;94868.03;5054611;28;20782;-60
2022/07/10 00:07:06;;;;;;;13.33;12.00;;;18.20;99.90;;;18.54;70.08;94857.41;5055116;28;20511;-60
2022/07/10 00:09:34;;;;;;;11.00;9.97;;;18.20;99.90;;;18.50;70.31;94867.59;5055038;28;20765;-59
2022/07/10 00:12:02;;;;;;;12.60;11.30;;;18.20;99.90;;;18.49;70.30;94863.28;5056331;28;20502;-60
2022/07/10 00:14:29;;;;;;;11.97;10.80;;;18.20;99.90;;;18.48;69.98;94858.97;5057565;28;20455;-60
2022/07/10 00:16:57;;;;;;;11.97;10.90;;;18.20;99.90;;;18.47;70.35;94865.31;5055744;28;20522;-59
2022/07/10 00:19:24;;;;;;;11.80;10.70;;;18.10;99.90;;;18.46;69.90;94869.00;5056293;28;20533;-60
2022/07/10 00:21:51;;;;;;;12.03;10.80;;;18.10;99.90;;;18.44;70.15;94863.84;5051639;28;20487;-61
2022/07/10 00:24:19;;;;;;;16.63;12.10;;;18.10;99.90;;;18.44;70.29;94858.53;5052580;28;20566;-59
2022/07/10 00:26:48;;;;;;;13.03;11.73;;;18.10;99.90;;;18.42;70.51;94863.22;5048221;28;20495;-59
2022/07/10 00:29:15;;;;;;;10.97;9.97;;;18.10;99.90;;;18.41;70.22;94853.56;5054645;28;20636;-61
2022/07/10 00:31:43;;;;;;;12.33;11.13;;;18.10;99.90;;;18.41;70.28;94850.09;5056050;28;20471;-59
2022/07/10 00:34:11;;;;;;;12.73;11.47;;;18.10;99.90;;;18.40;70.60;94859.09;5057445;28;20444;-61
2022/07/10 00:36:38;;;;;;;12.80;11.70;;;18.10;99.90;;;18.37;70.01;94862.97;5055378;28;21020;-61
2022/07/10 00:39:06;;;;;;;11.97;10.77;;;18.10;99.90;;;18.35;70.50;94854.34;5058847;28;20813;-61
2022/07/10 00:41:33;;;;;;;12.13;10.70;;;18.00;99.90;;;18.35;70.37;94853.50;5049438;28;20541;-59
2022/07/10 00:44:02;;;;;;;12.20;11.10;;;18.00;99.90;;;18.34;70.28;94857.19;5050170;28;20452;-59
2022/07/10 00:46:31;;;;;;;12.40;10.13;;;18.00;99.90;;;18.33;70.37;94851.03;5051713;28;20896;-60
2022/07/10 00:48:58;;;;;;;14.30;11.30;;;18.00;99.90;;;18.32;70.12;94852.03;5050028;28;20454;-60
2022/07/10 00:51:27;;;;;;;12.40;10.50;;;18.00;99.90;;;18.31;69.92;94842.44;5051225;28;20549;-59
2022/07/10 00:53:54;;;;;;;11.30;10.30;;;18.00;99.90;;;18.30;70.33;94839.94;5054615;28;20451;-60
2022/07/10 00:56:25;;;;;;;10.50;9.50;;;18.00;99.90;;;18.30;70.58;94831.97;5056643;28;20529;-58
2022/07/10 00:58:52;;;;;;;11.43;10.37;;;18.00;99.90;;;18.28;70.21;94832.97;5055849;28;20468;-60
2022/07/10 01:01:22;;;;;;;11.93;10.03;;;18.00;99.90;;;18.27;70.41;94830.50;5057855;28;20703;-62
2022/07/10 01:03:49;;;;;;;10.60;9.70;;;18.00;99.90;;;18.26;70.63;94835.00;5052493;28;20467;-59
2022/07/10 01:06:17;;;;;;;11.70;10.70;;;18.00;99.90;;;18.27;70.15;94833.97;5057296;28;20597;-59
2022/07/10 01:08:44;;;;;;;10.50;9.60;;;17.90;99.90;;;18.26;70.77;94839.47;5048881;28;20479;-57
2022/07/10 01:11:12;;;;;;;12.40;11.27;;;18.00;99.90;;;18.24;70.70;94839.66;5049237;28;20476;-59
2022/07/10 01:13:39;;;;;;;12.00;10.20;;;17.90;99.90;;;18.24;70.21;94842.34;5049860;28;20956;-59
2022/07/10 01:16:07;;;;;;;14.50;10.57;;;18.00;99.90;;;18.24;70.45;94834.34;5052224;28;20971;-62
2022/07/10 01:18:36;;;;;;;10.67;9.70;;;17.90;99.90;;;18.22;70.15;94839.03;5054782;28;20444;-62
2022/07/10 01:21:05;;;;;;;10.70;9.70;;;17.90;99.90;;;18.24;70.18;94834.34;5055886;28;20479;-61
2022/07/10 01:23:32;;;;;;;14.27;9.00;;;17.90;99.90;;;18.22;70.80;94823.06;5056107;28;20460;-60
2022/07/10 01:26:01;;;;;;;10.70;9.70;;;17.90;99.90;;;18.23;70.63;94826.53;5057067;28;20506;-61
2022/07/10 01:28:29;;;;;;;13.63;10.50;;;17.90;99.90;;;18.24;70.52;94830.88;5051441;28;20462;-58
2022/07/10 01:30:56;;;;;;;10.80;9.47;;;17.90;99.90;;;18.24;70.75;94826.34;5059097;28;20467;-57
2022/07/10 01:33:24;;;;;;;9.87;8.90;;;17.90;99.90;;;18.24;70.07;94829.03;5047397;28;20451;-61
2022/07/10 01:35:51;;;;;;;11.43;9.90;;;17.90;99.90;;;18.23;70.14;94824.72;5054353;28;21082;-61
2022/07/10 01:38:20;;;;;;;15.70;10.23;;;17.90;99.90;;;18.23;70.22;94813.22;5047672;28;20475;-57
2022/07/10 01:40:47;;;;;;;10.80;9.83;;;17.90;99.90;;;18.22;70.17;94801.78;5052614;28;20480;-59
2022/07/10 01:43:14;;;;;;;10.37;9.27;;;17.90;99.90;;;18.21;70.02;94808.09;5054616;28;20456;-59
2022/07/10 01:45:43;;;;;;;10.07;9.17;;;17.90;99.90;;;18.20;70.63;94803.81;5054432;28;20506;-61
2022/07/10 01:48:10;;;;;;;19.60;10.00;;;17.90;99.90;;;18.19;70.43;94804.00;5055307;28;21030;-60
2022/07/10 01:50:38;;;;;;;13.23;9.83;;;17.90;99.90;;;18.17;70.58;94814.84;5056870;28;20467;-61
2022/07/10 01:53:06;;;;;;;11.97;9.47;;;17.90;99.90;;;18.17;70.60;94811.31;5056290;28;20947;-62
2022/07/10 01:55:35;;;;;;;11.37;9.43;;;17.80;99.90;;;18.14;70.41;94809.88;5053598;28;20482;-58
2022/07/10 01:58:02;;;;;;;12.63;10.70;;;17.80;99.90;;;18.12;69.93;94811.88;5055839;28;20454;-61
2022/07/10 02:00:29;;;;;;;10.27;9.47;;;17.90;99.90;;;18.09;70.17;94807.78;5049954;28;20467;-60
2022/07/10 02:05:42;;;;;;;10.87;9.77;;;17.80;99.90;;;18.07;70.78;94808.97;5052833;28;20527;-60
2022/07/10 02:08:09;;;;;;;11.67;9.80;;;17.80;99.90;;;18.04;70.27;94798.72;5058420;28;20837;-59
2022/07/10 02:10:38;;;;;;;11.20;10.20;;;17.70;99.90;;;18.01;70.10;94799.91;5059148;28;20609;-61
2022/07/10 02:13:05;;;;;;;12.23;10.00;;;17.70;99.90;;;17.99;70.87;94803.78;5057164;28;20458;-57
2022/07/10 02:15:33;;;;;;;11.33;10.13;;;17.70;99.90;;;17.97;70.34;94795.97;5062996;28;20474;-60
2022/07/10 02:18:00;;;;;;;10.90;9.90;;;17.70;99.90;;;17.97;70.47;94795.13;5058080;28;20974;-61
2022/07/10 02:20:27;;;;;;;11.00;10.00;;;17.70;99.90;;;17.96;70.93;94804.97;5054324;28;20482;-61
2022/07/10 02:22:54;;;;;;;11.30;10.17;;;17.70;99.90;;;17.94;70.59;94800.81;5053523;28;20921;-60
2022/07/10 02:25:22;;;;;;;11.40;10.40;;;17.60;99.90;;;17.92;70.91;94795.69;5050211;28;20467;-59
2022/07/10 02:27:51;;;;;;;10.77;9.77;;;17.60;99.90;;;17.90;70.93;94793.22;5055645;28;20486;-61
2022/07/10 02:30:18;;;;;;;12.20;9.50;;;17.60;99.90;;;17.87;70.67;94790.91;5054083;28;20530;-59
2022/07/10 02:32:46;;;;;;;9.40;8.43;;;17.60;99.90;;;17.86;70.73;94786.63;5059614;28;20459;-60
2022/07/10 02:35:13;;;;;;;10.40;9.17;;;17.60;99.90;;;17.85;70.50;94792.94;5057838;28;20469;-59
2022/07/10 02:37:41;;;;;;;22.03;10.20;;;17.60;99.90;;;17.82;70.41;94790.66;5060828;28;20451;-61
2022/07/10 02:40:09;;;;;;;13.60;10.50;;;17.50;99.90;;;17.81;71.10;94794.31;5054205;28;20460;-62
2022/07/10 02:42:37;;;;;;;10.33;9.10;;;17.50;99.90;;;17.80;70.55;94795.34;5062290;28;20443;-62
2022/07/10 02:45:07;;;;;;;13.90;9.67;;;17.50;99.90;;;17.80;70.98;94800.66;5049331;28;20467;-59
2022/07/10 02:47:34;;;;;;;10.93;9.77;;;17.50;99.90;;;17.78;71.09;94794.69;5060029;28;20852;-61
2022/07/10 02:50:02;;;;;;;9.97;9.10;;;17.50;99.90;;;17.76;70.60;94796.72;5050326;28;20883;-58
2022/07/10 02:52:30;;;;;;;13.10;9.63;;;17.50;99.90;;;17.76;71.03;94799.38;5056114;28;20462;-60
2022/07/10 02:54:57;;;;;;;8.70;7.90;;;17.50;99.90;;;17.76;71.24;94810.00;5056126;28;20447;-61
2022/07/10 02:57:25;;;;;;;11.37;10.27;;;17.50;99.90;;;17.75;70.80;94805.69;5059164;28;20474;-59
2022/07/10 02:59:52;;;;;;;12.40;10.13;;;17.50;99.90;;;17.75;70.73;94805.69;5057301;28;20451;-58
2022/07/10 03:02:21;;;;;;;12.67;9.40;;;17.50;99.90;;;17.74;70.50;94810.19;5058075;28;20537;-60
2022/07/10 03:04:48;;;;;;;9.23;8.53;;;17.50;99.90;;;17.76;70.54;94812.69;5054373;28;20451;-61
2022/07/10 03:07:16;;;;;;;10.60;9.50;;;17.50;99.90;;;17.76;71.14;94818.00;5061204;28;20499;-59
2022/07/10 03:09:43;;;;;;;9.63;8.73;;;17.50;99.90;;;17.76;71.04;94817.19;5055060;28;20460;-61
2022/07/10 03:12:10;;;;;;;9.20;8.40;;;17.50;99.90;;;17.76;70.58;94825.16;5051168;28;20526;-61
2022/07/10 03:14:38;;;;;;;10.37;8.77;;;17.50;99.90;;;17.74;70.52;94820.84;5052032;28;20864;-58
2022/07/10 03:17:05;;;;;;;12.37;9.47;;;17.50;99.90;;;17.74;70.42;94820.84;5055150;28;20488;-59
2022/07/10 03:19:34;;;;;;;11.00;9.80;;;17.50;99.90;;;17.73;70.86;94815.72;5057999;28;20448;-60
2022/07/10 03:22:01;;;;;;;14.10;10.73;;;17.40;99.90;;;17.72;71.19;94817.56;5057772;28;20470;-58
2022/07/10 03:24:29;;;;;;;12.30;9.47;;;17.40;99.90;;;17.73;71.06;94823.69;5055704;28;20463;-61
2022/07/10 03:26:56;;;;;;;13.93;9.93;;;17.40;99.90;;;17.73;71.16;94823.69;5057491;28;20491;-61
2022/07/10 03:29:24;;;;;;;11.47;10.33;;;17.40;99.90;;;17.73;71.09;94829.81;5054870;28;20880;-59
2022/07/10 03:31:51;;;;;;;11.20;10.00;;;17.50;99.90;;;17.73;70.67;94824.50;5052183;28;20475;-61
2022/07/10 03:34:19;;;;;;;10.47;9.37;;;17.40;99.90;;;17.76;70.78;94831.28;5049392;28;20773;-59
2022/07/10 03:36:48;;;;;;;14.03;10.40;;;17.50;99.90;;;17.77;70.86;94829.44;5050539;28;20560;-58
2022/07/10 03:39:15;;;;;;;11.13;10.17;;;17.50;99.90;;;17.77;71.17;94832.97;5053884;28;20450;-59
2022/07/10 03:41:42;;;;;;;9.53;8.73;;;17.50;99.90;;;17.78;70.64;94829.25;5058854;28;20480;-58
2022/07/10 03:44:10;;;;;;;9.63;8.80;;;17.50;99.90;;;17.80;71.00;94826.41;5058862;28;20459;-62
2022/07/10 03:46:37;;;;;;;16.03;9.80;;;17.50;99.90;;;17.82;70.63;94822.56;5050302;28;20606;-60
2022/07/10 03:49:06;;;;;;;10.37;9.47;;;17.50;99.90;;;17.85;70.91;94832.03;5056941;28;20459;-59
2022/07/10 03:51:34;;;;;;;12.40;9.63;;;17.60;99.90;;;17.87;70.84;94817.50;5056632;28;20882;-60
2022/07/10 03:54:03;;;;;;;10.60;9.30;;;17.60;99.90;;;17.90;71.13;94816.34;5053919;28;20775;-62
2022/07/10 03:59:15;;;;;;;11.23;9.80;;;17.60;99.90;;;17.96;70.58;94820.13;5055075;28;20663;-58
2022/07/10 04:01:42;;;;;;;11.23;10.03;;;17.60;99.90;;;17.95;70.55;94816.59;5046703;28;20472;-60
2022/07/10 04:04:10;;;;;;;10.80;9.80;;;17.70;99.90;;;18.00;70.38;94819.56;5057346;28;20506;-61
2022/07/10 04:06:38;;;;;;;8.90;8.10;;;17.70;99.90;;;18.02;70.71;94817.53;5051133;28;20491;-59
2022/07/10 04:09:07;;;;;;;10.03;9.07;;;17.70;99.90;;;18.04;70.82;94812.81;5056775;28;20872;-59
2022/07/10 04:11:34;;;;;;;11.83;9.40;;;17.70;99.90;;;18.08;70.15;94815.97;5056433;28;20476;-59
2022/07/10 04:14:01;;;;;;;9.70;8.57;;;17.80;99.90;;;18.13;70.45;94812.72;5055649;28;20452;-59
2022/07/10 04:16:29;;;;;;;10.20;9.20;;;17.80;99.90;;;18.17;70.18;94804.19;5059339;28;20475;-61
2022/07/10 04:18:56;;;;;;;9.47;8.50;;;17.90;99.90;;;18.23;70.53;94802.59;5052560;28;20447;-61
2022/07/10 04:21:23;;;;;;;11.53;10.27;;;17.90;99.90;;;18.28;69.79;94805.53;5049892;28;20948;-62
2022/07/10 04:23:50;;;;;;;14.60;8.67;;;17.90;99.90;;;18.32;69.71;94800.63;5050722;28;21087;-59
2022/07/10 04:26:19;;;;;;;13.00;8.87;;;18.00;99.90;;;18.36;69.79;94797.41;5051818;28;20475;-60
2022/07/10 04:28:47;;;;;;;9.53;8.33;;;18.00;99.90;;;18.41;70.14;94805.66;5056359;28;20455;-58
2022/07/10 04:31:14;;;;;;;10.20;9.30;;;18.10;99.90;;;18.45;70.07;94792.75;5059279;28;20471;-59
2022/07/10 04:33:41;;;;;;;8.60;7.70;;;18.10;99.90;;;18.49;69.27;94796.69;5054137;28;20447;-59
2022/07/10 04:36:09;;;;;;;12.73;8.47;;;18.20;99.90;;;18.52;69.77;94801.66;5056163;28;20552;-61
2022/07/10 04:38:36;;;;;;;11.00;8.60;;;18.20;99.90;;;18.56;69.03;94800.25;5055202;28;20451;-62
2022/07/10 04:41:03;;;;;;;10.67;9.30;;;18.20;99.90;;;18.58;69.55;94800.06;5053288;28;20540;-61
2022/07/10 04:43:33;;;;;;;10.27;8.70;;;18.30;99.90;;;18.59;69.40;94802.53;5056462;28;20777;-62
2022/07/10 04:46:00;;;;;;;11.23;7.70;;;18.30;99.90;;;18.64;69.38;94807.31;5051384;28;21014;-59
2022/07/10 04:48:27;;;;;;;15.70;8.37;;;18.30;99.90;;;18.67;69.32;94808.72;5056600;28;20491;-61
2022/07/10 04:50:55;;;;;;;9.10;8.30;;;18.30;99.90;;;18.69;69.10;94810.19;5052917;28;20471;-62
2022/07/10 04:53:22;;;;;;;8.90;7.63;;;18.40;99.90;;;18.73;68.44;94807.97;5056185;28;20451;-61
2022/07/10 04:55:49;;;;;;;9.47;7.60;;;18.40;99.90;;;18.75;68.40;94804.09;5055276;28;20497;-63
2022/07/10 04:58:17;;;;;;;8.93;8.10;;;18.40;99.90;;;18.79;68.30;94808.03;5055921;28;20459;-60
2022/07/10 05:00:45;;;;;;;19.57;8.70;;;18.50;99.90;;;18.88;68.43;94808.75;5051543;28;21052;-62
2022/07/10 05:03:15;;;;;;;8.57;7.83;;;18.50;99.90;;;18.95;68.16;94804.31;5056281;28;20451;-59
2022/07/10 05:05:43;;;;;;;13.87;8.77;;;18.60;99.90;;;19.03;68.28;94803.34;5050652;28;20482;-57
2022/07/10 05:08:10;;;;;;;11.57;8.87;;;18.70;99.90;;;19.10;67.98;94798.88;5051536;28;20494;-60
2022/07/10 05:10:39;;;;;;;11.20;8.47;;;18.80;99.90;;;19.17;68.35;94801.59;5046550;28;20886;-62
2022/07/10 05:13:07;;;;;;;11.53;8.90;;;18.80;99.90;;;19.24;68.17;94799.81;5055480;28;20513;-59
2022/07/10 05:15:34;;;;;;;16.43;10.47;;;18.90;99.90;;;19.32;68.08;94802.31;5052476;28;20550;-58
2022/07/10 05:18:04;;;;;;;10.97;9.90;;;19.00;99.90;;;19.42;68.12;94796.59;5055219;28;20457;-60
2022/07/10 05:20:31;;;;;;;12.87;8.70;;;19.00;99.90;;;19.50;67.81;94798.28;5054771;28;20544;-61
2022/07/10 05:22:58;;;;;;;11.33;7.97;;;19.10;99.90;;;19.61;67.81;94803.09;5056189;28;20455;-62
2022/07/10 05:25:27;;;;;;;8.30;7.43;;;19.30;99.90;;;19.76;67.58;94810.13;5052354;28;20484;-60
2022/07/10 05:27:54;;;;;;;9.37;8.37;;;19.40;99.90;;;19.92;66.93;94800.97;5057821;28;20576;-62
2022/07/10 05:30:22;;;;;;;14.63;8.53;;;19.50;99.90;;;20.10;66.83;94803.94;5048391;28;20522;-64
2022/07/10 05:32:50;;;;;;;14.27;7.47;;;19.70;99.90;;;20.29;66.42;94813.00;5048306;28;20458;-60
2022/07/10 05:35:19;;;;;;;9.00;6.60;;;19.80;99.90;;;20.48;65.84;94807.91;5054601;28;20562;-62
2022/07/10 05:37:46;;;;;;;12.80;6.23;;;20.00;99.90;;;20.65;64.95;94806.56;5051379;28;20859;-59
2022/07/10 05:40:14;;;;;;;7.97;7.20;;;20.20;99.90;;;20.82;64.79;94803.47;5058788;28;20469;-63
2022/07/10 05:42:41;;;;;;;11.53;7.77;;;20.40;99.90;;;21.02;64.21;94801.63;5057426;28;20454;-61
2022/07/10 05:45:10;;;;;;;7.80;7.10;;;20.60;99.90;;;21.19;63.94;94795.84;5056986;28;20507;-62
2022/07/10 05:47:37;;;;;;;7.40;6.80;;;20.70;99.90;;;21.39;63.58;94793.94;5057181;28;21113;-61
2022/07/10 05:50:06;;;;;;;9.60;7.37;;;20.90;99.90;;;21.61;63.30;94799.91;5057371;28;20463;-60
2022/07/10 05:52:35;;;;;;;7.07;6.27;;;21.10;99.90;;;21.88;63.23;94796.34;5056402;28;20452;-62
2022/07/10 05:55:02;;;;;;;9.10;7.03;;;21.40;99.90;;;22.15;62.15;94803.22;5059528;28;20508;-60
2022/07/10 05:57:31;;;;;;;8.90;6.00;;;21.60;99.30;;;22.36;61.29;94807.47;5052459;28;20463;-62
2022/07/10 05:59:58;;;;;;;8.93;6.03;;;21.80;98.90;;;22.53;61.00;94791.69;5052627;28;20509;-62
2022/07/10 06:02:26;;;;;;;7.37;5.70;;;22.00;98.30;;;22.70;60.15;94804.59;5049605;28;20891;-63
2022/07/10 06:04:53;;;;;;;7.53;5.67;;;22.20;98.10;;;22.86;60.16;94801.34;5054564;28;20459;-62
2022/07/10 06:07:20;;;;;;;9.37;6.57;;;22.30;97.70;;;23.03;59.05;94808.88;5058691;28;20498;-60
2022/07/10 06:09:49;;;;;;;5.90;5.37;;;22.50;97.20;;;23.15;59.46;94795.59;5059573;28;20445;-63
2022/07/10 06:12:17;;;;;;;6.10;5.60;;;22.70;96.90;;;23.24;58.35;94797.78;5064201;28;20471;-61
2022/07/10 06:14:44;;;;;;;5.83;5.23;;;22.80;96.00;;;23.37;57.83;94798.69;5062157;28;20447;-59
2022/07/10 06:17:11;;;;;;;10.73;5.57;;;22.90;96.10;;;23.51;57.41;94797.50;5052709;28;20478;-59
2022/07/10 06:19:38;;;;;;;6.13;5.57;;;23.00;95.90;;;23.67;57.17;94792.59;5062688;28;21020;-59
2022/07/10 06:24:52;;;;;;;5.30;4.80;;;23.30;95.30;;;24.03;56.87;94789.13;5060608;28;20433;-60
2022/07/10 06:27:19;;;;;;;7.27;4.97;;;23.50;95.00;;;24.21;55.88;94792.81;5064533;28;20494;-60
2022/07/10 06:29:47;;;;;;;6.50;5.33;;;23.60;94.60;;;24.35;56.01;94791.56;5063307;28;21080;-60
2022/07/10 06:32:14;;;;;;;5.20;4.80;;;23.80;94.00;;;24.46;54.82;94792.66;5057156;28;20498;-61
2022/07/10 06:34:41;;;;;;;4.50;4.20;;;23.90;93.30;;;24.57;55.46;94794.63;5058896;28;20468;-60
2022/07/10 06:37:09;;;;;;;4.37;3.97;;;24.00;93.20;;;24.70;54.05;94786.34;5059633;28;20599;-63
2022/07/10 06:39:36;;;;;;;13.03;4.43;;;24.10;92.60;;;24.84;54.66;94784.28;5055873;28;20461;-62
2022/07/10 06:42:06;;;;;;;5.13;4.83;;;24.30;92.80;;;25.02;54.43;94785.25;5059680;28;20476;-60
2022/07/10 06:44:33;;;;;;;6.27;3.97;;;24.40;92.60;;;25.16;53.72;94792.03;5053900;28;20448;-62
2022/07/10 06:49:50;;;;;;;5.20;4.60;;;24.60;91.70;;;25.17;52.74;94793.66;5043649;28;20455;-63
2022/07/10 06:52:18;;;;;;;4.63;4.23;;;24.70;91.20;;;25.18;52.93;94779.16;5061418;28;20473;-59
2022/07/10 06:54:45;;;;;;;4.10;3.80;;;24.70;90.90;;;25.25;52.30;94779.03;5054834;28;20447;-62
2022/07/10 06:57:14;;;;;;;9.70;4.97;;;24.70;90.80;;;25.33;52.63;94783.28;5059621;28;20855;-59
2022/07/10 06:59:41;;;;;;;5.90;5.27;;;24.80;90.60;;;25.43;52.62;94785.41;5058594;28;20457;-59
2022/07/10 07:02:08;;;;;;;12.80;4.20;;;24.80;90.50;;;25.51;52.30;94779.66;5055207;28;20949;-60
2022/07/10 07:04:36;;;;;;;5.17;4.67;;;24.90;90.30;;;25.60;52.09;94786.34;5051767;28;20474;-63
2022/07/10 07:07:03;;;;;;;10.93;4.57;;;25.10;90.20;;;25.69;51.91;94776.03;5051030;28;20468;-62
2022/07/10 07:09:31;;;;;;;4.00;3.70;;;25.10;90.00;;;25.83;51.38;94765.81;5053776;28;21031;-61
2022/07/10 07:11:58;;;;;;;5.03;4.43;;;25.20;89.30;;;25.97;51.25;94767.16;5059912;28;20546;-63
2022/07/10 07:14:27;;;;;;;4.30;4.00;;;25.40;89.10;;;26.13;50.63;94765.63;5061214;28;20446;-60
2022/07/10 07:17:05;;;;;;;7.00;4.30;;;25.60;87.50;;;26.31;50.71;94767.31;5063151;28;21043;-61
2022/07/10 07:23:09;;;;;;;19.47;4.07;;;25.70;87.30;;;26.50;50.14;94767.13;5063061;28;20438;-60
2022/07/10 07:25:06;;;;;;;3.33;3.23;;;26.10;85.70;;;26.86;49.48;94765.06;5063278;28;20490;-62
2022/07/10 07:27:34;;;;;;;7.90;3.70;;;26.20;84.40;;;27.00;49.36;94752.88;5064211;28;20551;-59
2022/07/10 07:30:08;;;;;;;37.17;5.17;;;26.40;84.00;;;27.15;48.46;94747.72;5059907;28;21922;-62
2022/07/10 07:32:35;;;;;;;8.97;3.70;;;26.50;82.00;;;27.30;48.52;94762.53;5058928;28;20439;-63
2022/07/10 07:35:03;;;;;;;6.40;3.43;;;26.70;81.30;;;27.38;47.83;94754.03;5062180;28;20458;-62
2022/07/10 07:37:41;;;;;;;4.23;3.93;;;26.70;79.90;;;27.50;47.75;94749.34;5062479;28;20442;-62
2022/07/10 07:40:10;;;;;;;3.67;3.33;;;26.90;80.10;;;27.64;47.70;94754.41;5057289;28;20490;-60
2022/07/10 07:42:37;;;;;;;3.20;3.00;;;27.00;79.80;;;27.75;47.27;94750.75;5059914;28;20945;-60
2022/07/10 07:45:08;;;;;;;3.60;3.40;;;27.20;78.50;;;27.85;47.01;94756.25;5054085;28;20450;-61
2022/07/10 07:47:45;;;;;;;3.80;3.50;;;27.30;77.60;;;27.96;45.54;94761.84;5056640;28;20466;-60
2022/07/10 07:50:12;;;;;;;3.33;3.03;;;27.30;75.50;;;28.06;46.43;94756.56;5050308;28;20443;-59
2022/07/10 07:52:40;;;;;;;6.43;3.27;;;27.40;75.60;;;28.18;45.84;94759.13;5054289;28;20850;-60
2022/07/10 07:55:08;;;;;;;4.40;3.50;;;27.60;74.30;;;28.27;45.14;94760.31;5048731;28;20839;-60
2022/07/10 07:57:35;;;;;;;14.60;3.43;;;27.60;72.30;;;28.38;45.08;94753.94;5056214;28;20651;-61
2022/07/10 08:00:04;;;;;;;10.53;3.77;;;27.80;72.60;;;28.50;44.90;94755.69;5061501;28;20454;-60
2022/07/10 08:02:33;;;;;;;7.20;3.67;;;27.90;70.50;;;28.59;44.17;94760.41;5053608;28;21062;-62
2022/07/10 08:05:00;;;;;;;4.70;2.90;;;27.90;69.90;;;28.69;44.84;94759.69;5052896;28;20813;-61
2022/07/10 08:07:35;;;;;;;5.53;3.27;;;28.10;70.80;;;28.76;43.86;94751.38;5055929;28;20451;-62
2022/07/10 08:10:03;;;;;;;16.70;4.20;;;28.20;69.00;;;28.86;43.95;94748.75;5057444;28;20970;-60
2022/07/10 08:12:30;;;;;;;5.50;3.23;;;28.20;67.80;;;28.94;43.40;94755.59;5055803;28;20458;-60
2022/07/10 08:14:58;;;;;;;3.27;3.03;;;28.30;65.90;;;28.92;43.30;94745.00;5053964;28;20462;-59
2022/07/10 08:17:25;;;;;;;4.67;2.97;;;28.40;67.20;;;28.91;42.82;94758.81;5049009;28;20455;-61
2022/07/10 08:19:54;;;;;;;3.13;2.93;;;28.40;65.80;;;28.97;43.25;94755.06;5052302;28;20458;-60
2022/07/10 08:22:21;;;;;;;6.27;3.40;;;28.40;65.50;;;29.08;42.78;94753.22;5049809;28;20444;-59
2022/07/10 08:24:49;;;;;;;4.03;3.63;;;28.50;65.20;;;29.21;42.51;94754.72;5057092;28;20870;-61
2022/07/10 08:27:16;;;;;;;3.80;2.70;;;28.60;64.90;;;29.28;42.03;94752.59;5050693;28;20581;-62
2022/07/10 08:29:44;;;;;;;5.20;2.83;;;28.60;63.80;;;29.19;41.90;94752.25;5057587;28;20533;-60
2022/07/10 08:32:12;;;;;;;15.33;3.17;;;28.60;62.90;;;29.10;41.94;94748.41;5049506;28;20532;-61
2022/07/10 08:34:39;;;;;;;5.07;3.27;;;28.50;62.70;;;29.03;41.98;94751.31;5052166;28;20448;-62
2022/07/10 08:37:08;;;;;;;3.17;2.90;;;28.50;62.70;;;29.05;42.08;94745.63;5053797;28;20471;-60
2022/07/10 08:39:35;;;;;;;8.83;3.10;;;28.50;63.20;;;29.09;42.18;94752.16;5051419;28;20447;-62
2022/07/10 08:42:03;;;;;;;3.63;2.63;;;28.50;63.20;;;29.11;41.61;94747.28;5051642;28;20465;-59
2022/07/10 08:44:30;;;;;;;2.60;2.40;;;28.50;61.10;;;29.15;41.44;94745.72;5057736;28;20516;-63
2022/07/10 08:46:57;;;;;;;5.83;2.40;;;28.50;61.70;;;29.20;42.42;94751.19;5055283;28;20551;-61
2022/07/10 08:49:28;;;;;;;7.27;2.80;;;28.60;62.10;;;29.32;41.49;94740.16;5058892;28;20327;-60
2022/07/10 08:51:58;;;;;;;3.13;2.87;;;28.70;61.30;;;29.47;40.91;94742.97;5052044;28;20546;-61
2022/07/10 08:54:28;;;;;;;15.43;2.50;;;28.90;60.70;;;29.58;41.71;94745.75;5048549;28;20258;-60
2022/07/10 08:56:57;;;;;;;3.03;2.70;;;29.00;60.70;;;29.73;41.37;94739.59;5051091;28;20471;-62
2022/07/10 08:59:24;;;;;;;14.13;2.77;;;29.10;60.80;;;29.88;41.28;94736.97;5052285;28;21059;-60
2022/07/10 09:01:53;;;;;;;10.23;2.70;;;29.20;59.80;;;30.04;40.74;94730.53;5054595;28;20245;-59
2022/07/10 09:04:21;;;;;;;3.10;2.67;;;29.40;59.20;;;30.20;40.06;94733.31;5054912;28;20216;-62
2022/07/10 09:06:49;;;;;;;10.53;2.43;;;29.50;59.20;;;30.25;39.96;94741.44;5053684;28;20227;-61
2022/07/10 09:09:16;;;;;;;5.03;2.97;;;29.60;57.10;;;30.24;39.96;94729.00;5050894;28;20516;-62
2022/07/10 09:11:45;;;;;;;2.83;2.50;;;29.60;57.40;;;30.09;39.88;94734.38;5049757;28;20227;-60
2022/07/10 09:14:15;;;;;;;3.00;2.70;;;29.50;57.30;;;30.00;39.15;94724.00;5046382;28;20209;-60
2022/07/10 09:16:44;;;;;;;2.87;2.40;;;29.50;57.00;;;29.97;39.18;94724.53;5053028;28;20228;-60
2022/07/10 09:19:20;;;;;;;2.93;2.20;;;29.40;56.90;;;30.01;38.70;94728.38;5058644;28;20208;-59
2022/07/10 09:21:48;;;;;;;7.17;2.70;;;29.40;56.80;;;30.08;39.26;94725.38;5055984;28;20238;-62
2022/07/10 09:24:19;;;;;;;2.57;2.37;;;29.50;56.60;;;30.12;38.93;94725.69;5053419;28;20707;-62
2022/07/10 09:27:00;;;;;;;2.70;2.30;;;29.50;56.50;;;30.16;38.48;94722.19;5051805;28;20235;-60
2022/07/10 09:29:28;;;;;;;4.97;2.47;;;29.50;56.10;;;30.22;39.10;94725.72;5061610;28;20315;-61
2022/07/10 09:31:56;;;;;;;7.30;2.80;;;29.60;56.10;;;30.11;37.87;94724.06;5048422;28;20640;-60
2022/07/10 09:34:37;;;;;;;5.17;2.23;;;29.60;53.70;;;29.86;38.22;94717.44;5051034;28;20905;-60
2022/07/10 09:37:20;;;;;;;4.17;2.50;;;29.30;54.10;;;29.66;38.53;94710.81;5057089;28;20235;-60
2022/07/10 09:39:58;;;;;;;4.40;2.10;;;29.20;54.70;;;29.60;38.40;94709.16;5056622;28;20466;-61
2022/07/10 09:42:34;;;;;;;5.30;2.73;;;29.10;54.40;;;29.65;39.04;94705.66;5057357;28;20211;-60
2022/07/10 09:45:18;;;;;;;2.03;1.93;;;29.10;55.40;;;29.75;38.68;94707.63;5053746;28;20247;-61
2022/07/10 09:47:47;;;;;;;7.13;2.30;;;29.10;55.00;;;29.84;39.58;94716.91;5060434;28;20231;-63
2022/07/10 09:50:36;;;;;;;4.87;2.30;;;29.20;55.90;;;29.94;37.33;94706.09;5056434;28;20443;-62
2022/07/10 09:53:04;;;;;;;10.13;2.90;;;29.30;53.10;;;29.97;38.38;94708.25;5054870;28;20401;-60
2022/07/10 09:55:34;;;;;;;5.00;2.27;;;29.40;54.40;;;29.95;37.41;94710.44;5055200;28;20224;-60
2022/07/10 09:58:04;;;;;;;2.10;1.90;;;29.40;54.10;;;29.89;38.12;94706.06;5052578;28;20213;-63
2022/07/10 10:00:33;;;;;;;3.27;1.90;;;29.30;53.60;;;29.83;38.71;94704.44;5056139;28;20282;-60
2022/07/10 10:03:01;;;;;;;8.67;2.50;;;29.30;53.80;;;29.77;38.65;94705.44;5053470;28;20212;-61
2022/07/10 10:05:37;;;;;;;4.53;1.53;;;29.20;54.10;;;29.71;37.31;94709.22;5058190;28;20236;-62
2022/07/10 10:08:13;;;;;;;7.27;2.53;;;29.20;53.70;;;29.63;38.39;94708.63;5045879;28;20211;-61
2022/07/10 10:10:45;;;;;;;7.23;2.00;;;29.10;54.20;;;29.50;38.33;94714.56;5047813;28;20228;-63
2022/07/10 10:13:19;;;;;;;2.77;1.50;;;29.00;53.90;;;29.31;39.01;94722.28;5054651;28;20291;-60
2022/07/10 10:15:48;;;;;;;4.50;2.30;;;28.80;54.40;;;29.26;39.36;94714.13;5053542;28;20496;-60
2022/07/10 10:18:17;;;;;;;2.80;2.47;;;28.70;54.80;;;29.28;39.42;94711.97;5056273;28;20875;-61
2022/07/10 10:20:45;;;;;;;2.00;1.90;;;28.70;55.20;;;29.35;39.16;94709.03;5056179;28;20478;-61
2022/07/10 10:23:17;;;;;;;1.97;1.77;;;28.80;54.90;;;29.49;38.42;94708.28;5053252;28;20676;-62
2022/07/10 10:25:44;;;;;;;3.70;2.20;;;28.90;55.10;;;29.61;39.40;94693.72;5051445;28;20471;-62
2022/07/10 10:28:14;;;;;;;2.60;2.27;;;29.00;55.00;;;29.71;38.41;94695.66;5055288;28;20715;-60
2022/07/10 10:30:43;;;;;;;3.03;2.20;;;29.10;54.70;;;29.79;38.29;94700.56;5051470;28;20259;-60
2022/07/10 10:33:48;;;;;;;2.00;1.90;;;29.20;54.60;;;29.84;38.22;94693.31;5056254;28;20252;-60
2022/07/10 10:36:31;;;;;;;24.93;3.13;;;29.20;54.30;;;29.83;38.68;94693.56;5059475;28;20281;-62